createdAt,value
2022-08-03T00:03:38.874Z,0.26
2022-08-03T00:08:46.295Z,0.14
2022-08-03T00:13:53.193Z,0.21
2022-08-03T00:19:00.670Z,0.12
2022-08-03T00:24:05.955Z,0.13
2022-08-03T00:29:12.441Z,0.20
2022-08-03T00:34:32.599Z,0.18
2022-08-03T00:39:25.209Z,0.13
2022-08-03T00:44:32.083Z,0.25
2022-08-03T00:49:38.546Z,0.19
2022-08-03T00:54:45.423Z,0.22
2022-08-03T00:59:51.882Z,0.27
2022-08-03T01:04:58.674Z,0.24
2022-08-03T01:10:05.684Z,0.26
2022-08-03T01:15:12.525Z,0.23
2022-08-03T01:20:18.446Z,0.31
2022-08-03T01:25:25.250Z,0.25
2022-08-03T01:30:31.623Z,0.23
2022-08-03T01:35:39.128Z,0.14
2022-08-03T01:40:44.411Z,0.22
2022-08-03T01:45:51.095Z,0.14
2022-08-03T01:50:57.574Z,0.32
2022-08-03T01:56:04.497Z,0.33
2022-08-03T02:01:11.017Z,0.17
2022-08-03T02:07:00.008Z,0.21
2022-08-03T02:11:24.341Z,0.24
2022-08-03T02:16:31.246Z,0.31
2022-08-03T02:21:57.291Z,0.59
2022-08-03T02:26:44.012Z,0.20
2022-08-03T02:31:50.498Z,0.24
2022-08-03T02:36:57.299Z,0.23
2022-08-03T02:42:03.782Z,0.37
2022-08-03T02:47:10.174Z,0.20
2022-08-03T02:52:17.080Z,0.29
2022-08-03T02:57:22.843Z,0.29
2022-08-03T03:02:29.329Z,0.30
2022-08-03T03:07:44.223Z,0.19
2022-08-03T03:12:43.024Z,0.20
2022-08-03T03:17:50.524Z,0.29
2022-08-03T03:22:57.027Z,0.16
2022-08-03T03:28:03.825Z,0.34
2022-08-03T03:33:09.794Z,0.32
2022-08-03T03:38:16.545Z,0.24
2022-08-03T03:43:22.910Z,0.29
2022-08-03T03:48:29.771Z,0.27
2022-08-03T03:53:35.670Z,0.22
2022-08-03T03:58:42.831Z,0.34
2022-08-03T04:03:49.456Z,0.34
2022-08-03T04:08:56.125Z,0.21
2022-08-03T04:14:02.826Z,0.30
2022-08-03T04:19:09.490Z,0.31
2022-08-03T04:24:15.900Z,0.40
2022-08-03T04:29:22.196Z,0.49
2022-08-03T04:34:28.673Z,0.34
2022-08-03T04:39:35.415Z,0.35
2022-08-03T04:44:41.854Z,0.55
2022-08-03T04:49:48.653Z,0.31
2022-08-03T04:54:55.131Z,0.27
2022-08-03T05:00:03.405Z,0.30
2022-08-03T05:05:08.210Z,0.31
2022-08-03T05:10:16.459Z,0.47
2022-08-03T05:15:21.496Z,0.47
2022-08-03T05:20:28.214Z,0.35
2022-08-03T05:25:34.727Z,0.27
2022-08-03T05:30:42.526Z,0.58
2022-08-03T05:35:57.333Z,0.40
2022-08-03T05:40:57.469Z,0.31
2022-08-03T05:46:12.334Z,0.34
2022-08-03T05:51:07.712Z,0.32
2022-08-03T05:56:15.943Z,0.37
2022-08-03T06:01:20.426Z,0.28
2022-08-03T06:06:31.881Z,0.37
2022-08-03T06:11:33.125Z,0.20
2022-08-03T06:16:40.065Z,0.44
2022-08-03T06:21:46.972Z,0.41
2022-08-03T06:26:53.042Z,0.44
2022-08-03T06:31:59.718Z,0.30
2022-08-03T06:37:06.325Z,0.44
2022-08-03T06:42:13.119Z,0.26
2022-08-03T06:47:19.501Z,0.44
2022-08-03T06:52:37.567Z,0.44
2022-08-03T06:57:32.822Z,0.55
2022-08-03T07:02:47.968Z,0.41
2022-08-03T07:07:43.508Z,0.37
2022-08-03T07:12:52.689Z,0.45
2022-08-03T07:17:56.904Z,0.51
2022-08-03T07:23:03.696Z,0.52
2022-08-03T07:28:10.109Z,0.54
2022-08-03T07:33:16.879Z,0.39
2022-08-03T07:38:23.366Z,0.64
2022-08-03T07:43:30.110Z,0.59
2022-08-03T07:48:36.554Z,0.49
2022-08-03T07:53:47.282Z,0.59
2022-08-03T07:58:49.421Z,0.47
2022-08-03T08:03:56.323Z,0.49
2022-08-03T08:09:02.814Z,0.74
2022-08-03T08:14:10.318Z,0.64
2022-08-03T08:19:17.219Z,0.51
2022-08-03T08:24:24.115Z,0.41
2022-08-03T08:29:30.194Z,0.53
2022-08-03T08:34:37.241Z,0.55
2022-08-03T08:39:43.583Z,0.55
2022-08-03T08:44:50.396Z,0.75
2022-08-03T08:50:09.379Z,0.68
2022-08-03T08:55:03.247Z,0.65
2022-08-03T09:00:09.734Z,0.76
2022-08-03T09:05:16.530Z,0.89
2022-08-03T09:10:23.013Z,0.63
2022-08-03T09:15:29.774Z,0.60
2022-08-03T09:20:37.971Z,0.54
2022-08-03T09:25:44.728Z,0.79
2022-08-03T09:30:51.229Z,0.66
2022-08-03T09:35:58.139Z,0.67
2022-08-03T09:41:04.505Z,0.75
2022-08-03T09:46:11.193Z,0.77
2022-08-03T09:52:28.780Z,0.61
2022-08-03T09:56:36.426Z,0.53
2022-08-03T10:01:30.025Z,0.58
2022-08-03T10:06:36.842Z,0.63
2022-08-03T10:11:43.334Z,0.62
2022-08-03T10:16:50.090Z,0.60
2022-08-03T10:21:57.133Z,0.47
2022-08-03T10:27:03.513Z,0.46
2022-08-03T10:32:09.906Z,0.52
2022-08-03T10:37:17.517Z,0.63
2022-08-03T10:42:23.830Z,0.88
2022-08-03T10:47:31.215Z,0.75
2022-08-03T10:52:41.019Z,0.72
2022-08-03T10:57:44.077Z,1.09
2022-08-03T11:02:50.054Z,0.90
2022-08-03T11:07:57.776Z,0.79
2022-08-03T11:13:04.260Z,0.97
2022-08-03T11:18:11.529Z,0.80
2022-08-03T11:23:18.363Z,0.92
2022-08-03T11:28:24.606Z,0.77
2022-08-03T11:33:30.542Z,0.81
2022-08-03T11:38:37.414Z,0.65
2022-08-03T11:43:43.922Z,0.79
2022-08-03T11:48:50.814Z,0.84
2022-08-03T11:53:57.298Z,0.65
2022-08-03T11:59:20.557Z,0.79
2022-08-03T12:04:10.680Z,0.88
2022-08-03T12:09:18.193Z,0.87
2022-08-03T12:14:49.496Z,0.64
2022-08-03T12:19:30.554Z,0.62
2022-08-03T12:24:37.240Z,0.64
2022-08-03T12:29:44.257Z,0.39
2022-08-03T12:34:50.171Z,0.49
2022-08-03T12:40:03.527Z,0.55
2022-08-03T12:45:04.222Z,0.56
2022-08-03T12:50:11.946Z,0.44
2022-08-03T12:55:18.398Z,0.42
2022-08-03T13:00:29.024Z,0.48
2022-08-03T13:05:31.147Z,0.47
2022-08-03T13:10:37.992Z,0.56
2022-08-03T13:15:48.094Z,0.46
2022-08-03T13:20:50.930Z,0.43
2022-08-03T13:25:57.362Z,0.51
2022-08-03T13:31:04.058Z,0.49
2022-08-03T13:36:10.025Z,0.49
2022-08-03T13:41:16.793Z,0.42
2022-08-03T13:46:22.798Z,0.55
2022-08-03T13:51:29.593Z,0.68
2022-08-03T13:56:36.178Z,0.36
2022-08-03T14:01:55.046Z,0.48
2022-08-03T14:06:49.705Z,0.59
2022-08-03T14:12:07.430Z,0.63
2022-08-03T14:17:03.278Z,0.58
2022-08-03T14:22:09.750Z,0.83
2022-08-03T14:27:17.111Z,0.72
2022-08-03T14:32:24.055Z,0.71
2022-08-03T14:37:30.537Z,0.65
2022-08-03T14:42:37.339Z,0.56
2022-08-03T14:50:34.483Z,0.56
2022-08-03T14:52:50.170Z,0.59
2022-08-03T14:57:56.592Z,0.83
2022-08-03T15:03:04.617Z,0.82
2022-08-03T15:08:11.009Z,0.74
2022-08-03T15:13:17.821Z,0.75
2022-08-03T15:18:24.289Z,0.78
2022-08-03T15:23:31.798Z,0.84
2022-08-03T15:28:38.905Z,0.91
2022-08-03T15:33:46.412Z,0.76
2022-08-03T15:38:53.177Z,0.52
2022-08-03T15:43:59.893Z,0.76
2022-08-03T15:49:05.816Z,0.92
2022-08-03T15:54:12.863Z,0.67
2022-08-03T15:59:20.400Z,0.76
2022-08-03T16:04:27.284Z,1.02
2022-08-03T16:09:42.379Z,0.73
2022-08-03T16:14:51.451Z,0.76
2022-08-03T16:19:46.171Z,0.75
2022-08-03T16:24:52.916Z,0.99
2022-08-03T16:29:59.640Z,0.87
2022-08-03T16:35:06.412Z,0.75
2022-08-03T16:40:19.272Z,0.68
2022-08-03T16:45:19.282Z,0.77
2022-08-03T16:50:25.777Z,0.74
2022-08-03T16:55:50.147Z,0.86
2022-08-03T17:00:41.815Z,0.92
2022-08-03T17:05:47.014Z,0.92
2022-08-03T17:10:51.006Z,0.89
2022-08-03T17:16:01.820Z,0.82
2022-08-03T17:21:03.643Z,0.93
2022-08-03T17:26:20.219Z,0.87
2022-08-03T17:31:23.200Z,0.88
2022-08-03T17:36:29.811Z,0.93
2022-08-03T17:41:38.973Z,0.68
2022-08-03T17:46:35.373Z,0.88
2022-08-03T17:51:49.879Z,0.82
2022-08-03T17:56:47.453Z,0.83
2022-08-03T18:01:57.501Z,0.92
2022-08-03T18:07:00.534Z,0.72
2022-08-03T18:12:06.476Z,0.83
2022-08-03T18:17:12.996Z,0.89
2022-08-03T18:22:19.630Z,1.12
2022-08-03T18:27:26.080Z,0.90
2022-08-03T18:32:32.789Z,0.72
2022-08-03T18:37:51.670Z,0.93
2022-08-03T18:42:53.027Z,0.99
2022-08-03T18:47:52.844Z,0.74
2022-08-03T18:52:57.085Z,0.67
2022-08-03T18:58:03.877Z,0.68
2022-08-03T19:03:09.857Z,0.85
2022-08-03T19:08:17.375Z,0.79
2022-08-03T19:13:30.829Z,0.61
2022-08-03T19:18:30.914Z,0.78
2022-08-03T19:23:37.340Z,0.75
2022-08-03T19:28:44.233Z,0.83
2022-08-03T19:33:57.515Z,0.79
2022-08-03T19:38:56.686Z,0.99
2022-08-03T19:49:14.985Z,0.93
2022-08-03T19:54:16.268Z,0.79
2022-08-03T19:59:24.840Z,1.01
2022-08-03T20:04:30.905Z,0.71
2022-08-03T20:09:37.650Z,0.73
2022-08-03T20:14:43.656Z,0.70
2022-08-03T20:19:51.272Z,0.81
2022-08-03T20:24:57.205Z,0.70
2022-08-03T20:30:06.273Z,0.79
2022-08-03T20:35:11.726Z,0.71
2022-08-03T20:40:18.665Z,0.69
2022-08-03T20:45:59.800Z,0.79
2022-08-03T20:50:31.395Z,0.83
2022-08-03T20:55:47.627Z,0.81
2022-08-03T21:00:43.807Z,1.01
2022-08-03T21:10:56.677Z,0.95
2022-08-03T21:13:02.804Z,0.94
2022-08-03T21:13:12.546Z,0.54
2022-08-03T21:16:14.188Z,0.61
2022-08-03T21:21:09.522Z,0.72
2022-08-03T21:26:15.914Z,0.68
2022-08-03T21:31:25.289Z,0.57
2022-08-03T21:36:29.933Z,0.66
2022-08-03T21:41:36.813Z,0.91
2022-08-03T21:46:43.526Z,0.81
2022-08-03T21:51:50.427Z,0.77
2022-08-03T21:56:57.037Z,1.05
2022-08-03T22:02:11.459Z,0.68
2022-08-03T22:07:07.591Z,0.73
2022-08-03T22:12:14.388Z,0.69
2022-08-03T22:17:53.672Z,0.62
2022-08-03T22:22:27.794Z,0.94
2022-08-03T22:27:34.209Z,0.69
2022-08-03T22:32:41.641Z,0.80
2022-08-03T22:37:48.101Z,0.89
2022-08-03T22:42:54.998Z,0.73
2022-08-03T22:48:01.382Z,1.08
2022-08-03T22:53:08.150Z,0.71
2022-08-03T22:58:14.562Z,0.78
2022-08-03T23:03:24.649Z,0.79
2022-08-03T23:08:34.614Z,0.84
2022-08-03T23:13:33.889Z,0.76
2022-08-03T23:18:40.256Z,0.73
2022-08-03T23:23:46.971Z,0.66
2022-08-03T23:28:54.835Z,0.79
2022-08-03T23:34:01.925Z,0.80
2022-08-03T23:39:07.981Z,0.79
2022-08-03T23:44:14.799Z,0.86
2022-08-03T23:49:20.729Z,0.72
2022-08-03T23:54:27.738Z,0.82
2022-08-03T23:59:34.163Z,0.69
